Time;durP1;ratioP1;P1;durP2;ratioP2;P2;SDS_P1;SDS_P2;PMS_P1;PMS_P2;Temp;Humidity;BMP_temperature;BMP_pressure;BME280_temperature;BME280_humidity;BME280_pressure;Samples;Min_cycle;Max_cycle;Signal;HPM_P1;HPM_P2
2023/01/02 00:01:44;;;;;;;1.25;0.30;;;21.10;50.50;;;;;;5045808;28;20055;-57
2023/01/02 00:04:11;;;;;;;2.35;0.55;;;21.10;50.50;;;;;;5045992;28;20045;-57
2023/01/02 00:06:39;;;;;;;1.52;0.20;;;21.10;50.60;;;;;;5045861;28;20122;-55
2023/01/02 00:09:07;;;;;;;1.48;0.40;;;21.10;50.60;;;;;;5045493;28;20037;-57
2023/01/02 00:11:36;;;;;;;0.85;0.20;;;21.10;50.60;;;;;;5045936;28;20128;-58
2023/01/02 00:14:03;;;;;;;0.50;0.20;;;21.10;50.60;;;;;;5064306;28;20526;-55
2023/01/02 00:16:30;;;;;;;1.30;0.20;;;21.10;50.70;;;;;;5065269;28;20048;-58
2023/01/02 00:18:57;;;;;;;1.70;0.20;;;21.10;50.70;;;;;;5048590;28;20041;-55
2023/01/02 00:21:24;;;;;;;3.30;0.28;;;21.10;50.70;;;;;;5045524;28;20045;-56
2023/01/02 00:23:51;;;;;;;0.73;0.52;;;21.00;50.70;;;;;;5045442;28;20079;-56
2023/01/02 00:26:18;;;;;;;0.40;0.17;;;21.00;50.70;;;;;;5060849;28;20049;-59
2023/01/02 00:28:46;;;;;;;1.40;0.20;;;21.10;50.80;;;;;;5025976;28;20038;-57
2023/01/02 00:31:14;;;;;;;1.23;0.40;;;21.00;50.80;;;;;;5025339;28;20065;-56
2023/01/02 00:33:41;;;;;;;2.55;0.65;;;21.00;50.80;;;;;;5028966;28;20041;-55
2023/01/02 00:36:11;;;;;;;0.40;0.35;;;21.00;50.80;;;;;;5045278;28;20045;-57
2023/01/02 00:38:40;;;;;;;1.98;0.38;;;21.00;50.90;;;;;;5043970;28;20045;-57
2023/01/02 00:41:08;;;;;;;1.83;0.10;;;21.00;50.90;;;;;;5045427;28;20140;-56
2023/01/02 00:43:35;;;;;;;4.68;0.20;;;21.00;51.50;;;;;;5045570;28;20045;-55
2023/01/02 00:46:04;;;;;;;3.55;0.30;;;21.00;51.00;;;;;;5044891;28;20120;-57
2023/01/02 00:48:31;;;;;;;0.90;0.30;;;21.00;51.00;;;;;;5045436;28;20037;-56
2023/01/02 00:50:58;;;;;;;3.22;0.22;;;21.00;51.00;;;;;;5043906;28;20053;-55
2023/01/02 00:53:25;;;;;;;2.67;0.82;;;21.00;51.10;;;;;;5045295;28;20055;-56
2023/01/02 00:55:52;;;;;;;3.08;0.25;;;21.00;51.10;;;;;;5050331;28;20068;-56
2023/01/02 00:58:19;;;;;;;2.53;0.20;;;21.00;51.10;;;;;;5050628;28;20052;-52
2023/01/02 01:00:46;;;;;;;9.30;0.28;;;21.00;51.80;;;;;;5051318;28;20051;-57
2023/01/02 01:03:14;;;;;;;2.15;0.15;;;21.00;51.20;;;;;;5051781;28;20123;-55
2023/01/02 01:05:41;;;;;;;0.98;0.25;;;21.00;51.20;;;;;;5051831;28;20076;-54
2023/01/02 01:08:08;;;;;;;1.67;0.20;;;21.00;51.30;;;;;;5051262;28;20128;-54
2023/01/02 01:10:37;;;;;;;0.25;0.25;;;21.00;51.30;;;;;;5051794;28;20114;-56
2023/01/02 01:13:04;;;;;;;0.50;0.10;;;20.90;51.30;;;;;;5050346;28;20045;-57
2023/01/02 01:15:33;;;;;;;3.45;0.17;;;20.90;51.40;;;;;;5051477;28;20048;-56
2023/01/02 01:18:00;;;;;;;2.70;0.20;;;20.90;51.40;;;;;;5039110;28;20045;-57
2023/01/02 01:20:28;;;;;;;1.17;0.20;;;20.90;51.50;;;;;;5031778;28;20132;-57
2023/01/02 01:22:56;;;;;;;2.25;0.40;;;20.90;51.50;;;;;;5031789;28;20077;-53
2023/01/02 01:25:23;;;;;;;1.20;0.10;;;20.90;51.50;;;;;;5036746;28;20532;-52
2023/01/02 01:27:53;;;;;;;0.32;0.25;;;20.90;51.60;;;;;;5051338;28;20040;-57
2023/01/02 01:30:20;;;;;;;1.50;0.20;;;20.90;51.60;;;;;;5051398;28;20592;-57
2023/01/02 01:32:47;;;;;;;1.80;0.75;;;20.90;51.70;;;;;;5051477;28;20045;-57
2023/01/02 01:35:14;;;;;;;3.30;0.30;;;20.90;51.70;;;;;;5051532;28;20092;-58
2023/01/02 01:37:42;;;;;;;0.98;0.90;;;20.90;51.70;;;;;;5051218;28;20032;-53
2023/01/02 01:40:10;;;;;;;1.75;0.10;;;20.90;52.30;;;;;;5051291;28;20589;-56
2023/01/02 01:42:37;;;;;;;2.95;0.90;;;20.90;51.80;;;;;;5050773;28;20033;-56
2023/01/02 01:45:13;;;;;;;2.28;0.20;;;20.90;51.80;;;;;;5051771;28;20103;-57
2023/01/02 01:47:42;;;;;;;2.78;0.10;;;20.90;51.90;;;;;;5051417;28;20071;-55
2023/01/02 01:50:12;;;;;;;0.28;0.20;;;20.80;51.80;;;;;;5051318;28;20729;-57
2023/01/02 01:52:44;;;;;;;0.63;0.10;;;20.80;51.90;;;;;;5051561;28;20057;-56
2023/01/02 01:55:15;;;;;;;0.60;0.30;;;20.90;52.00;;;;;;5051463;28;20043;-56
2023/01/02 01:57:46;;;;;;;0.68;0.10;;;20.80;52.00;;;;;;5051137;28;20049;-57
2023/01/02 02:00:14;;;;;;;1.80;0.20;;;20.90;52.10;;;;;;5051072;28;20671;-56
2023/01/02 02:02:46;;;;;;;1.05;0.30;;;20.80;52.00;;;;;;5030989;28;20064;-57
2023/01/02 02:05:17;;;;;;;1.55;0.10;;;20.80;52.10;;;;;;5047207;28;20041;-56
2023/01/02 02:07:52;;;;;;;1.65;0.32;;;20.80;52.10;;;;;;5047235;28;20136;-56
2023/01/02 02:10:19;;;;;;;2.60;0.10;;;20.80;52.10;;;;;;5047875;28;20045;-55
2023/01/02 02:12:46;;;;;;;0.22;0.10;;;20.80;52.20;;;;;;5055533;28;20744;-57
2023/01/02 02:15:19;;;;;;;1.98;0.10;;;20.80;52.20;;;;;;5067947;28;20131;-57
2023/01/02 02:17:56;;;;;;;1.05;0.38;;;20.80;52.20;;;;;;5067921;28;20040;-57
2023/01/02 02:20:33;;;;;;;0.45;0.45;;;20.80;52.30;;;;;;5067955;28;20083;-57
2023/01/02 02:23:28;;;;;;;1.58;0.20;;;20.80;52.40;;;;;;5048850;28;20041;-56
2023/01/02 02:26:30;;;;;;;0.40;0.10;;;20.80;52.30;;;;;;5045843;28;20132;-54
2023/01/02 02:29:33;;;;;;;2.28;0.40;;;20.80;52.30;;;;;;5028097;28;20585;-54
2023/01/02 02:32:13;;;;;;;1.20;0.10;;;20.70;52.40;;;;;;5025907;28;20130;-56
2023/01/02 02:34:46;;;;;;;0.98;0.10;;;20.80;52.50;;;;;;5039244;28;20044;-57
2023/01/02 02:37:19;;;;;;;0.95;0.40;;;20.80;52.60;;;;;;5047541;28;20124;-58
2023/01/02 02:40:00;;;;;;;1.45;0.10;;;20.70;52.60;;;;;;5047147;28;20099;-54
2023/01/02 02:42:39;;;;;;;1.17;0.82;;;20.70;52.60;;;;;;5047199;28;20044;-54
2023/01/02 02:45:14;;;;;;;3.05;0.22;;;20.70;52.60;;;;;;5047685;28;20041;-52
2023/01/02 02:47:47;;;;;;;1.98;0.00;;;20.70;52.70;;;;;;5047315;28;20481;-50
2023/01/02 02:50:20;;;;;;;0.52;0.10;;;20.70;52.70;;;;;;5047202;28;20144;-54
2023/01/02 02:52:54;;;;;;;0.20;0.10;;;20.70;52.70;;;;;;5047173;28;20131;-53
2023/01/02 02:55:25;;;;;;;1.95;0.20;;;20.70;52.80;;;;;;5046960;28;20562;-54
2023/01/02 02:57:53;;;;;;;3.38;0.10;;;20.70;53.00;;;;;;5047315;28;20140;-57
2023/01/02 03:00:23;;;;;;;1.33;0.10;;;20.70;52.90;;;;;;5047423;28;20048;-55
2023/01/02 03:02:52;;;;;;;0.40;0.10;;;20.70;52.90;;;;;;5047157;28;20095;-57
2023/01/02 03:05:25;;;;;;;0.88;0.20;;;20.70;52.90;;;;;;5047026;28;20044;-55
2023/01/02 03:07:58;;;;;;;0.55;0.10;;;20.70;52.90;;;;;;5046887;28;20048;-56
2023/01/02 03:10:34;;;;;;;1.23;0.10;;;20.70;52.90;;;;;;5046292;28;20049;-53
2023/01/02 03:13:13;;;;;;;1.85;0.20;;;20.70;53.00;;;;;;5046810;28;20064;-56
2023/01/02 03:15:43;;;;;;;3.60;0.63;;;20.70;53.00;;;;;;5046834;28;20048;-54
2023/01/02 03:18:23;;;;;;;0.73;0.10;;;20.70;53.00;;;;;;5046691;28;20072;-56
2023/01/02 03:21:00;;;;;;;0.25;0.05;;;20.70;53.00;;;;;;5046904;28;20049;-55
2023/01/02 03:23:29;;;;;;;0.30;0.10;;;20.70;53.10;;;;;;5046453;28;20029;-55
2023/01/02 03:25:58;;;;;;;0.73;0.20;;;20.70;53.10;;;;;;5046318;28;20048;-55
2023/01/02 03:28:26;;;;;;;0.55;0.10;;;20.60;53.10;;;;;;5046664;28;20051;-54
2023/01/02 03:30:57;;;;;;;0.75;0.03;;;20.70;53.20;;;;;;5046412;28;20052;-54
2023/01/02 03:33:28;;;;;;;0.15;0.00;;;20.70;53.10;;;;;;5046632;28;20107;-55
2023/01/02 03:36:00;;;;;;;0.75;0.10;;;20.70;53.20;;;;;;5046352;28;20106;-55
2023/01/02 03:38:30;;;;;;;0.90;0.00;;;20.70;53.20;;;;;;5045870;28;20048;-56
2023/01/02 03:41:05;;;;;;;0.13;0.00;;;20.60;53.20;;;;;;5046164;28;20540;-56
2023/01/02 03:43:35;;;;;;;0.88;0.00;;;20.60;53.20;;;;;;5046253;28;20064;-53
2023/01/02 03:46:09;;;;;;;0.35;0.20;;;20.60;53.20;;;;;;5046248;28;20077;-56
2023/01/02 03:48:43;;;;;;;0.03;0.00;;;20.60;53.20;;;;;;5045622;28;20041;-56
2023/01/02 03:51:10;;;;;;;0.10;0.10;;;20.60;53.20;;;;;;5044365;28;20620;-56
2023/01/02 03:53:39;;;;;;;0.40;0.00;;;20.60;53.20;;;;;;5045609;28;20041;-55
2023/01/02 03:56:15;;;;;;;0.10;0.00;;;20.60;53.30;;;;;;5045978;28;20041;-57
2023/01/02 03:58:49;;;;;;;0.45;0.10;;;20.60;53.30;;;;;;5045825;28;20136;-57
2023/01/02 04:01:25;;;;;;;0.43;0.15;;;20.60;53.30;;;;;;5045874;28;20049;-56
2023/01/02 04:03:59;;;;;;;0.20;0.00;;;20.60;53.30;;;;;;5045952;28;20136;-55
2023/01/02 04:06:31;;;;;;;0.00;0.00;;;20.60;53.40;;;;;;5045901;28;20450;-55
2023/01/02 04:09:04;;;;;;;0.03;0.00;;;20.60;53.50;;;;;;5044817;28;20041;-53
2023/01/02 04:11:33;;;;;;;0.00;0.00;;;20.60;53.40;;;;;;5045675;28;20130;-53
2023/01/02 04:14:09;;;;;;;0.32;0.00;;;20.50;53.40;;;;;;5063902;28;20123;-56
2023/01/02 04:16:38;;;;;;;0.40;0.00;;;20.60;53.50;;;;;;5065786;28;20558;-54
2023/01/02 04:19:13;;;;;;;0.45;0.00;;;20.60;53.40;;;;;;5065464;28;20033;-52
2023/01/02 04:21:41;;;;;;;0.00;0.00;;;20.60;53.40;;;;;;5077092;28;20131;-56
2023/01/02 04:24:13;;;;;;;1.08;0.00;;;20.50;53.50;;;;;;5045074;28;20037;-56
2023/01/02 04:26:45;;;;;;;0.00;0.00;;;20.50;53.50;;;;;;5044890;28;20118;-55
2023/01/02 04:29:13;;;;;;;1.45;0.00;;;20.50;53.50;;;;;;5044674;28;20041;-52
2023/01/02 04:31:45;;;;;;;0.10;0.00;;;20.50;53.50;;;;;;5045257;28;20052;-55
2023/01/02 04:34:17;;;;;;;0.05;0.00;;;20.60;53.60;;;;;;5045626;28;20044;-56
2023/01/02 04:36:44;;;;;;;0.00;0.00;;;20.50;53.50;;;;;;5045042;28;20134;-55
2023/01/02 04:39:11;;;;;;;0.00;0.00;;;20.50;53.50;;;;;;5045005;28;20045;-56
2023/01/02 04:41:39;;;;;;;1.52;0.00;;;20.50;53.50;;;;;;5045189;28;20049;-55
2023/01/02 04:44:06;;;;;;;0.13;0.00;;;20.50;53.50;;;;;;5045060;28;20052;-53
2023/01/02 04:46:33;;;;;;;0.00;0.00;;;20.50;53.50;;;;;;5043801;28;20114;-55
2023/01/02 04:49:00;;;;;;;0.20;0.00;;;20.50;53.50;;;;;;5044977;28;20051;-53
2023/01/02 04:51:29;;;;;;;0.10;0.00;;;20.50;53.50;;;;;;5044640;28;20049;-55
2023/01/02 04:53:56;;;;;;;0.28;0.00;;;20.50;53.50;;;;;;5044902;28;20041;-56
2023/01/02 04:56:24;;;;;;;0.00;0.00;;;20.50;53.50;;;;;;5045178;28;20053;-53
2023/01/02 04:58:51;;;;;;;0.10;0.00;;;20.50;53.50;;;;;;5044911;28;20041;-55
2023/01/02 05:01:20;;;;;;;0.00;0.00;;;20.50;53.50;;;;;;5044865;28;20579;-56
2023/01/02 05:03:50;;;;;;;0.90;0.00;;;20.50;53.50;;;;;;5045227;28;20100;-55
2023/01/02 05:06:17;;;;;;;0.00;0.00;;;20.50;53.60;;;;;;5045070;28;20045;-56
2023/01/02 05:08:46;;;;;;;0.08;0.00;;;20.50;53.60;;;;;;5044747;28;20433;-57
2023/01/02 05:11:14;;;;;;;0.22;0.00;;;20.50;53.60;;;;;;5044895;28;20049;-54
2023/01/02 05:13:42;;;;;;;0.00;0.00;;;20.50;53.60;;;;;;5060636;28;20067;-55
2023/01/02 05:16:10;;;;;;;0.00;0.00;;;20.50;53.60;;;;;;5064861;28;20045;-57
2023/01/02 05:18:37;;;;;;;0.00;0.00;;;20.50;53.70;;;;;;5064882;28;20041;-56
2023/01/02 05:21:05;;;;;;;0.00;0.00;;;20.50;53.70;;;;;;5064533;28;20052;-55
2023/01/02 05:23:50;;;;;;;0.22;0.00;;;20.50;53.70;;;;;;5064824;28;20044;-56
2023/01/02 05:26:18;;;;;;;1.00;0.00;;;20.50;53.70;;;;;;5064758;28;20052;-54
2023/01/02 05:28:45;;;;;;;0.10;0.00;;;20.50;53.70;;;;;;5024741;28;20100;-57
2023/01/02 05:31:13;;;;;;;0.00;0.00;;;20.50;53.70;;;;;;5024845;28;20064;-54
2023/01/02 05:33:40;;;;;;;0.73;0.00;;;20.50;53.80;;;;;;5027974;28;20119;-55
2023/01/02 05:36:08;;;;;;;0.43;0.00;;;20.50;53.70;;;;;;5044299;28;20781;-57
2023/01/02 05:38:38;;;;;;;0.13;0.00;;;20.40;53.70;;;;;;5044521;28;20045;-54
2023/01/02 05:41:07;;;;;;;0.00;0.00;;;20.50;54.40;;;;;;5044950;28;20049;-56
2023/01/02 05:43:37;;;;;;;0.00;0.00;;;20.50;53.80;;;;;;5048249;28;20053;-56
2023/01/02 05:46:08;;;;;;;0.00;0.00;;;20.50;53.80;;;;;;5048290;28;20072;-58
2023/01/02 05:48:36;;;;;;;0.15;0.00;;;20.50;53.80;;;;;;5048373;28;20049;-56
2023/01/02 05:51:03;;;;;;;0.00;0.00;;;20.50;53.80;;;;;;5048352;28;20077;-60
2023/01/02 05:53:31;;;;;;;0.20;0.00;;;20.40;53.70;;;;;;5063279;28;20134;-56
2023/01/02 05:56:05;;;;;;;0.00;0.00;;;20.50;53.80;;;;;;5047787;28;20037;-55
2023/01/02 05:58:33;;;;;;;0.08;0.08;;;20.40;53.70;;;;;;5028600;28;20100;-54
2023/01/02 06:01:09;;;;;;;0.10;0.00;;;20.50;53.80;;;;;;5028214;28;20045;-58
2023/01/02 06:03:37;;;;;;;0.00;0.00;;;20.50;53.80;;;;;;5030615;28;20506;-56
2023/01/02 06:06:05;;;;;;;0.00;0.00;;;20.40;53.80;;;;;;5048046;28;20049;-56
2023/01/02 06:08:32;;;;;;;0.00;0.00;;;20.50;53.80;;;;;;5047866;28;20072;-57
2023/01/02 06:11:00;;;;;;;0.00;0.00;;;20.40;53.80;;;;;;5047898;28;20064;-57
2023/01/02 06:13:28;;;;;;;0.00;0.00;;;20.50;53.80;;;;;;5061271;28;20052;-56
2023/01/02 06:15:56;;;;;;;0.00;0.00;;;20.40;53.80;;;;;;5067716;28;20040;-52
2023/01/02 06:18:25;;;;;;;0.00;0.00;;;20.40;53.80;;;;;;5049980;28;20521;-56
2023/01/02 06:20:57;;;;;;;0.00;0.00;;;20.40;53.80;;;;;;5047690;28;20413;-53
2023/01/02 06:23:24;;;;;;;0.30;0.00;;;20.40;53.80;;;;;;5047607;28;21032;-55
2023/01/02 06:25:51;;;;;;;0.00;0.00;;;20.40;53.80;;;;;;5047184;28;20537;-53
2023/01/02 06:28:19;;;;;;;0.10;0.00;;;20.40;53.80;;;;;;5047039;28;20405;-55
2023/01/02 06:30:47;;;;;;;0.00;0.00;;;20.40;53.80;;;;;;5046542;28;20759;-54
2023/01/02 06:33:14;;;;;;;1.10;0.00;;;20.40;53.80;;;;;;5047050;28;20049;-56
2023/01/02 06:35:43;;;;;;;0.52;0.00;;;20.40;53.80;;;;;;5047430;28;20041;-57
2023/01/02 06:38:10;;;;;;;0.63;0.00;;;20.40;53.80;;;;;;5047404;28;20055;-56
2023/01/02 06:40:37;;;;;;;0.00;0.00;;;20.40;53.90;;;;;;5045797;28;20084;-54
2023/01/02 06:43:04;;;;;;;0.38;0.00;;;20.40;53.90;;;;;;5047442;28;20136;-55
2023/01/02 06:45:32;;;;;;;0.10;0.00;;;20.40;53.90;;;;;;5047087;28;20037;-57
2023/01/02 06:47:59;;;;;;;0.32;0.00;;;20.40;53.90;;;;;;5046870;28;20646;-55
2023/01/02 06:50:26;;;;;;;0.00;0.00;;;20.40;53.90;;;;;;5047207;28;20044;-56
2023/01/02 06:52:55;;;;;;;0.05;0.00;;;20.40;53.90;;;;;;5046589;28;20045;-57
2023/01/02 06:55:22;;;;;;;0.00;0.00;;;20.40;53.90;;;;;;5046675;28;20047;-56
2023/01/02 06:57:49;;;;;;;0.10;0.00;;;20.40;53.90;;;;;;5047099;28;20045;-57
2023/01/02 07:00:17;;;;;;;0.00;0.00;;;20.40;53.90;;;;;;5046907;28;20037;-56
2023/01/02 07:02:44;;;;;;;0.00;0.00;;;20.40;53.90;;;;;;5046495;28;20924;-54
2023/01/02 07:05:11;;;;;;;0.03;0.00;;;20.40;53.90;;;;;;5046770;28;20052;-55
2023/01/02 07:07:38;;;;;;;0.00;0.00;;;20.40;53.90;;;;;;5046800;28;20053;-56
2023/01/02 07:10:08;;;;;;;0.10;0.00;;;20.40;54.10;;;;;;5044930;28;20507;-56
2023/01/02 07:12:36;;;;;;;0.30;0.00;;;20.40;53.90;;;;;;5053140;28;20161;-54
2023/01/02 07:15:04;;;;;;;0.00;0.00;;;20.40;53.90;;;;;;5051962;28;20037;-56
2023/01/02 07:17:31;;;;;;;0.00;0.00;;;20.40;53.90;;;;;;5046238;28;20526;-56
2023/01/02 07:19:59;;;;;;;0.35;0.00;;;20.40;53.90;;;;;;5046445;28;20114;-54
2023/01/02 07:22:26;;;;;;;0.00;0.00;;;20.40;53.90;;;;;;5046650;28;20041;-54
2023/01/02 07:24:53;;;;;;;0.00;0.00;;;20.40;53.90;;;;;;5046600;28;20055;-55
2023/01/02 07:27:22;;;;;;;0.00;0.00;;;20.40;53.90;;;;;;5046313;28;20123;-56
2023/01/02 07:29:49;;;;;;;0.63;0.00;;;20.40;53.90;;;;;;5046220;28;20055;-56
2023/01/02 07:32:16;;;;;;;0.30;0.00;;;20.40;53.90;;;;;;5045938;28;20497;-56
2023/01/02 07:34:43;;;;;;;0.00;0.00;;;20.40;53.90;;;;;;5046371;28;20115;-54
2023/01/02 07:37:10;;;;;;;0.00;0.00;;;20.40;53.90;;;;;;5046534;28;20555;-56
2023/01/02 07:39:37;;;;;;;0.00;0.00;;;20.40;53.90;;;;;;5046124;28;20045;-55
2023/01/02 07:42:04;;;;;;;0.00;0.00;;;20.40;53.90;;;;;;5046194;28;20102;-57
2023/01/02 07:44:33;;;;;;;1.35;0.00;;;20.40;53.90;;;;;;5046137;28;20041;-55
2023/01/02 07:47:00;;;;;;;0.00;0.00;;;20.40;53.90;;;;;;5045615;28;20122;-57
2023/01/02 07:49:27;;;;;;;0.00;0.00;;;20.40;53.90;;;;;;5045566;28;20166;-56
2023/01/02 07:51:54;;;;;;;0.35;0.35;;;20.30;53.80;;;;;;5046115;28;20136;-56
2023/01/02 07:54:21;;;;;;;0.00;0.00;;;20.40;53.90;;;;;;5045883;28;20048;-56
2023/01/02 07:56:48;;;;;;;0.80;0.00;;;20.40;53.90;;;;;;5046216;28;20068;-57
2023/01/02 07:59:15;;;;;;;0.00;0.00;;;20.40;54.00;;;;;;5045495;28;20044;-56
2023/01/02 08:01:43;;;;;;;0.10;0.00;;;20.40;54.00;;;;;;5045551;28;20040;-54
2023/01/02 08:04:10;;;;;;;0.00;0.00;;;20.40;54.00;;;;;;5044547;28;20131;-54
2023/01/02 08:06:40;;;;;;;0.00;0.00;;;20.30;53.90;;;;;;5045554;28;20141;-56
2023/01/02 08:09:07;;;;;;;0.00;0.00;;;20.30;53.90;;;;;;5045537;28;20048;-55
2023/01/02 08:11:34;;;;;;;0.00;0.00;;;20.30;53.90;;;;;;5045632;28;20045;-52
2023/01/02 08:14:02;;;;;;;0.00;0.00;;;20.30;53.90;;;;;;5063723;28;20162;-55
2023/01/02 08:16:29;;;;;;;0.05;0.00;;;20.30;53.90;;;;;;5065211;28;20079;-56
2023/01/02 08:18:57;;;;;;;0.93;0.00;;;20.30;53.90;;;;;;5065392;28;20455;-55
2023/01/02 08:21:26;;;;;;;3.40;0.00;;;20.30;53.90;;;;;;5065390;28;20109;-53
2023/01/02 08:23:53;;;;;;;0.00;0.00;;;20.30;53.90;;;;;;5065307;28;20041;-55
2023/01/02 08:26:20;;;;;;;0.00;0.00;;;20.30;53.90;;;;;;5046757;28;20053;-55
2023/01/02 08:28:47;;;;;;;0.00;0.00;;;20.30;53.90;;;;;;5044677;28;20477;-56
2023/01/02 08:31:16;;;;;;;0.25;0.25;;;20.30;53.90;;;;;;5044950;28;20192;-56
2023/01/02 08:33:44;;;;;;;0.00;0.00;;;20.30;53.90;;;;;;5045387;28;20052;-54
2023/01/02 08:36:14;;;;;;;0.28;0.00;;;20.30;53.90;;;;;;5045340;28;20044;-55
2023/01/02 08:38:41;;;;;;;0.00;0.00;;;20.30;53.90;;;;;;5045089;28;20107;-56
2023/01/02 08:41:08;;;;;;;0.30;0.00;;;20.30;53.90;;;;;;5044961;28;20102;-52
2023/01/02 08:43:36;;;;;;;0.00;0.00;;;20.30;53.90;;;;;;5045005;28;20048;-54
2023/01/02 08:46:04;;;;;;;0.43;0.00;;;20.30;53.90;;;;;;5045366;28;20080;-54
2023/01/02 08:48:31;;;;;;;0.00;0.00;;;20.30;53.90;;;;;;5044928;28;20048;-55
2023/01/02 08:50:58;;;;;;;0.05;0.00;;;20.30;53.90;;;;;;5044981;28;20069;-54
2023/01/02 08:53:27;;;;;;;1.48;0.00;;;20.30;53.80;;;;;;5044940;28;20048;-55
2023/01/02 08:55:54;;;;;;;0.00;0.00;;;20.30;53.80;;;;;;5044949;28;20073;-54
2023/01/02 08:58:21;;;;;;;0.38;0.00;;;20.30;53.80;;;;;;5045129;28;20044;-55
2023/01/02 09:00:51;;;;;;;0.55;0.00;;;20.30;53.80;;;;;;5045124;28;20086;-53
2023/01/02 09:03:18;;;;;;;0.10;0.00;;;20.30;53.80;;;;;;5044783;28;20056;-53
2023/01/02 09:05:45;;;;;;;0.00;0.00;;;20.30;53.80;;;;;;5044898;28;20080;-55
2023/01/02 09:08:12;;;;;;;0.00;0.00;;;20.30;53.80;;;;;;5045211;28;20049;-55
2023/01/02 09:10:41;;;;;;;0.00;0.00;;;20.30;53.80;;;;;;5044840;28;20063;-54
2023/01/02 09:13:08;;;;;;;1.75;1.30;;;20.30;53.80;;;;;;5055745;28;20426;-54
2023/01/02 09:15:35;;;;;;;0.00;0.00;;;20.30;53.80;;;;;;5065455;28;20036;-55
2023/01/02 09:18:02;;;;;;;3.10;0.00;;;20.30;53.80;;;;;;5068632;28;20516;-53
2023/01/02 09:20:29;;;;;;;0.00;0.00;;;20.30;53.80;;;;;;5069025;28;20047;-52
2023/01/02 09:22:56;;;;;;;0.00;0.00;;;20.30;53.80;;;;;;5068950;28;20479;-55
2023/01/02 09:25:23;;;;;;;0.00;0.00;;;20.30;53.80;;;;;;5068712;28;20049;-54
2023/01/02 09:27:52;;;;;;;0.17;0.00;;;20.30;53.80;;;;;;5056076;28;20146;-57
2023/01/02 09:30:20;;;;;;;0.00;0.00;;;20.30;53.80;;;;;;5048957;28;20079;-58
2023/01/02 09:32:49;;;;;;;0.43;0.00;;;20.30;53.80;;;;;;5048782;28;20045;-54
2023/01/02 09:35:17;;;;;;;0.00;0.00;;;20.20;53.70;;;;;;5048926;28;20044;-56
2023/01/02 09:37:44;;;;;;;0.52;0.00;;;20.30;53.80;;;;;;5048970;28;20044;-54
2023/01/02 09:40:13;;;;;;;0.45;0.00;;;20.30;53.80;;;;;;5048593;28;20667;-53
2023/01/02 09:42:41;;;;;;;0.00;0.00;;;20.30;53.80;;;;;;5048367;28;20049;-53
2023/01/02 09:45:12;;;;;;;0.00;0.00;;;20.30;53.80;;;;;;5048562;28;20447;-56
2023/01/02 09:47:40;;;;;;;0.00;0.00;;;20.30;54.40;;;;;;5048496;28;20073;-57
2023/01/02 09:50:13;;;;;;;0.20;0.00;;;20.30;53.80;;;;;;5048115;28;20435;-57
2023/01/02 09:52:43;;;;;;;0.00;0.00;;;20.30;53.80;;;;;;5048388;28;20052;-57
2023/01/02 09:55:15;;;;;;;0.00;0.00;;;20.20;53.80;;;;;;5063104;28;20047;-52
2023/01/02 09:57:49;;;;;;;0.75;0.00;;;20.30;53.80;;;;;;5048264;28;20406;-56
2023/01/02 10:00:20;;;;;;;0.10;0.00;;;20.30;53.80;;;;;;5048704;28;20123;-57
2023/01/02 10:02:56;;;;;;;0.00;0.00;;;20.30;53.80;;;;;;5048271;28;20048;-56
2023/01/02 10:05:56;;;;;;;2.00;0.00;;;20.20;53.70;;;;;;5048221;28;20049;-56
2023/01/02 10:08:30;;;;;;;0.10;0.10;;;20.30;53.70;;;;;;5046103;28;20064;-56
2023/01/02 10:11:08;;;;;;;0.10;0.00;;;20.30;53.80;;;;;;5047685;28;20079;-53
2023/01/02 10:13:40;;;;;;;0.00;0.00;;;20.20;53.70;;;;;;5063042;28;20072;-55
2023/01/02 10:16:16;;;;;;;0.22;0.17;;;20.20;53.70;;;;;;5054471;28;20404;-56
2023/01/02 10:18:49;;;;;;;0.00;0.00;;;20.20;53.70;;;;;;5047818;28;20534;-57
2023/01/02 10:21:23;;;;;;;0.08;0.05;;;20.20;53.70;;;;;;5048013;28;20140;-55
2023/01/02 10:23:56;;;;;;;0.00;0.00;;;20.20;53.70;;;;;;5047787;28;20102;-56
2023/01/02 10:26:29;;;;;;;0.00;0.00;;;20.20;53.70;;;;;;5047035;28;20151;-55
2023/01/02 10:29:04;;;;;;;1.38;0.00;;;20.20;53.70;;;;;;5044764;28;20048;-56
2023/01/02 10:31:39;;;;;;;0.00;0.00;;;20.20;53.70;;;;;;5047515;28;20079;-56
2023/01/02 10:34:11;;;;;;;0.03;0.00;;;20.30;53.80;;;;;;5047373;28;20136;-55
2023/01/02 10:36:41;;;;;;;0.00;0.00;;;20.30;53.80;;;;;;5047673;28;20106;-57
2023/01/02 10:39:13;;;;;;;0.00;0.00;;;20.30;53.70;;;;;;5047082;28;20044;-56
2023/01/02 10:41:41;;;;;;;0.00;0.00;;;20.20;53.70;;;;;;5047389;28;20051;-52
2023/01/02 10:44:18;;;;;;;0.00;0.00;;;20.30;53.70;;;;;;5047804;28;20458;-57
2023/01/02 10:46:46;;;;;;;0.00;0.00;;;20.30;53.70;;;;;;5047633;28;20143;-56
2023/01/02 10:49:16;;;;;;;0.00;0.00;;;20.20;53.60;;;;;;5047341;28;20041;-55
2023/01/02 10:51:47;;;;;;;0.10;0.00;;;20.30;53.60;;;;;;5047314;28;20048;-56
2023/01/02 10:54:14;;;;;;;0.00;0.00;;;20.30;53.60;;;;;;5046848;28;20588;-54
2023/01/02 10:56:48;;;;;;;0.00;0.00;;;20.30;53.60;;;;;;5047147;28;20045;-56
2023/01/02 10:59:21;;;;;;;0.00;0.00;;;20.30;53.60;;;;;;5047121;28;20080;-55
2023/01/02 11:01:55;;;;;;;0.00;0.00;;;20.30;53.60;;;;;;5047051;28;20037;-56
2023/01/02 11:04:24;;;;;;;0.30;0.00;;;20.40;53.60;;;;;;5047193;28;20453;-57
2023/01/02 11:06:55;;;;;;;0.00;0.00;;;20.30;53.50;;;;;;5047098;28;20119;-55
2023/01/02 11:09:24;;;;;;;0.28;0.28;;;20.30;53.40;;;;;;5046407;28;20527;-55
2023/01/02 11:11:53;;;;;;;1.17;0.00;;;20.30;53.40;;;;;;5047170;28;20501;-56
2023/01/02 11:14:28;;;;;;;0.00;0.00;;;20.40;53.50;;;;;;5082323;28;20149;-54
2023/01/02 11:17:06;;;;;;;0.20;0.10;;;20.40;53.50;;;;;;5054661;28;20082;-54
2023/01/02 11:19:40;;;;;;;0.20;0.05;;;20.40;53.50;;;;;;5046677;28;20054;-54
2023/01/02 11:22:08;;;;;;;0.10;0.00;;;20.40;53.40;;;;;;5046610;28;20884;-55
2023/01/02 11:24:52;;;;;;;0.10;0.00;;;20.40;53.40;;;;;;5046622;28;20584;-54
2023/01/02 11:27:20;;;;;;;1.27;0.00;;;20.40;53.20;;;;;;5046447;28;20776;-54
2023/01/02 11:29:49;;;;;;;0.10;0.00;;;20.40;53.30;;;;;;5045899;28;20056;-55
2023/01/02 11:32:26;;;;;;;0.00;0.00;;;20.40;53.30;;;;;;5046536;28;20055;-56
2023/01/02 11:34:58;;;;;;;0.85;0.03;;;20.50;53.40;;;;;;5046306;28;20051;-57
2023/01/02 11:37:25;;;;;;;0.55;0.00;;;20.50;53.30;;;;;;5045977;28;20045;-53
2023/01/02 11:40:00;;;;;;;0.00;0.00;;;20.50;53.20;;;;;;5029556;28;20045;-55
2023/01/02 11:45:21;;;;;;;0.10;0.00;;;20.60;53.10;;;;;;5046298;28;20064;-57
2023/01/02 11:47:52;;;;;;;0.10;0.00;;;20.60;53.10;;;;;;5046124;28;20067;-54
2023/01/02 11:50:23;;;;;;;0.00;0.00;;;20.60;53.00;;;;;;5046154;28;20057;-55
2023/01/02 11:52:55;;;;;;;0.10;0.10;;;20.70;53.00;;;;;;5045697;28;20045;-54
2023/01/02 11:55:33;;;;;;;0.00;0.00;;;20.70;53.50;;;;;;5045689;28;20047;-55
2023/01/02 11:58:08;;;;;;;0.93;0.00;;;20.80;52.90;;;;;;5045407;28;20045;-55
2023/01/02 12:00:38;;;;;;;0.55;0.00;;;20.80;52.80;;;;;;5045885;28;20045;-56
2023/01/02 12:03:16;;;;;;;0.40;0.10;;;20.80;52.70;;;;;;5045914;28;20126;-53
2023/01/02 12:05:53;;;;;;;0.10;0.00;;;20.90;52.60;;;;;;5045031;28;20041;-55
2023/01/02 12:08:33;;;;;;;0.00;0.00;;;20.90;52.50;;;;;;5045798;28;20045;-56
2023/01/02 12:11:12;;;;;;;0.28;0.28;;;20.90;52.40;;;;;;5045516;28;20520;-53
2023/01/02 12:14:04;;;;;;;0.00;0.00;;;20.90;52.40;;;;;;5045264;28;20057;-55
2023/01/02 12:16:36;;;;;;;0.00;0.00;;;20.90;52.20;;;;;;5045809;28;20776;-53
2023/01/02 12:19:45;;;;;;;0.00;0.00;;;20.90;52.20;;;;;;5045252;28;20053;-55
2023/01/02 12:22:29;;;;;;;0.10;0.10;;;21.00;52.20;;;;;;5044845;28;20041;-55
2023/01/02 12:25:07;;;;;;;0.00;0.00;;;20.90;52.10;;;;;;5045212;28;20040;-56
2023/01/02 12:27:44;;;;;;;0.38;0.00;;;21.00;52.00;;;;;;5045570;28;20041;-53
2023/01/02 12:30:13;;;;;;;0.00;0.00;;;21.00;52.00;;;;;;5045772;28;20449;-56
2023/01/02 12:33:00;;;;;;;0.38;0.00;;;21.10;52.00;;;;;;5045627;28;20040;-56
2023/01/02 12:36:02;;;;;;;0.10;0.00;;;21.20;51.90;;;;;;5045360;28;20153;-55
2023/01/02 12:38:43;;;;;;;0.03;0.00;;;21.20;51.80;;;;;;5045357;28;20043;-53
2023/01/02 12:41:22;;;;;;;0.77;0.00;;;21.30;51.80;;;;;;5045184;28;20099;-55
2023/01/02 12:44:02;;;;;;;0.43;0.00;;;21.40;51.80;;;;;;5045451;28;20465;-54
2023/01/02 12:46:49;;;;;;;0.32;0.00;;;21.40;51.60;;;;;;5045490;28;20055;-55
2023/01/02 12:49:32;;;;;;;0.00;0.00;;;21.50;51.60;;;;;;5045139;28;20132;-55
2023/01/02 12:52:11;;;;;;;0.10;0.10;;;21.60;51.50;;;;;;5044754;28;20041;-54
2023/01/02 12:54:56;;;;;;;0.13;0.00;;;21.60;51.30;;;;;;5044982;28;20144;-55
2023/01/02 12:57:32;;;;;;;0.20;0.00;;;21.60;51.20;;;;;;5045212;28;20059;-57
2023/01/02 13:00:24;;;;;;;0.00;0.00;;;21.70;51.10;;;;;;5045458;28;20045;-56
2023/01/02 13:03:23;;;;;;;1.35;0.10;;;21.70;50.90;;;;;;5045344;28;20131;-54
2023/01/02 13:05:55;;;;;;;0.00;0.00;;;21.80;50.80;;;;;;5044787;28;20049;-55
2023/01/02 13:08:27;;;;;;;0.68;0.10;;;21.80;50.80;;;;;;5044941;28;20895;-56
2023/01/02 13:10:56;;;;;;;0.20;0.20;;;21.90;50.70;;;;;;5044785;28;20041;-56